Houari Boumediene Airport

DAAG · Algiers, 阿尔及利亚

罗盘
风向 的 风向 050° 阿尔及尔胡阿里·布迈丁机场 5/23
风: 5 kt, 2 beaufort

5 kt

改变
0 1.000 2.000 3.000 4.000 5.000
FEW 3.300 ft
METAR DAAD 041200Z 05005KT 9000 FEW033 29/11 Q1021

METAR 阿尔及尔胡阿里·布迈丁机场 - DAAG/ALG

阿尔及尔胡阿里·布迈丁机场是Algiers,阿尔及利亚中的大型机场。 该机场有2条跑道: 5/23 和 9/27. 该领域的国际民航组织标志是DAAG 它的国际航空运输协会代码是ALG.

这份报告是针对2022年10月4日 13:00, 当地时间在Bou Saada Airport进行的。

机场观察

风向为050°,速度为5 kt。

可见度为9 km。

有几云在3.300 ft的高度。 没有观察到天花板。

温度和风寒是29 °C。 露点为11 °C,相对湿度为33%。 海平面上的气压为1021 hPa (QNH)。

白天

今天,太阳从06:44升起,在18:26降落。 这适用于阿尔及尔胡阿里·布迈丁机场,世界夏令时可能有所不同。 当地时间与世界标准时间之间的时差为+1 小时。 夏令时目前正在进行中。

公司介绍

我们没有关于这个机场的公司信息。

体会

到Vliegles.nl去找飞行课程,跳伞和其他飞行体验。 浏览页面,了解阿尔及尔胡阿里·布迈丁机场附近所有可用的活动。 你也可以使用搜索功能来寻找你所在地附近的特定飞行课程、跳伞或其他飞行体验。

跑道

Id 标题 侧风 逆风 侧风 %
5/23 052°-232° 5 kt 3 %
9/27 091°-271° 3 kt 4 kt 66 %

逆风成分最大的方向会被突出显示,并用于横风计算。 这并不一定意味着这个方向在使用。

乌云

3.300 ft FEW 几云

温度 & 天气

温度 29 °C
露点 11 °C
相对湿度 33%
Kp-index 0 (0-9)

白天

日出
06:40
中午
12:31
日落
18:23 (4h 53m)

小工具

你想在你的网站上有一个关于阿尔及尔胡阿里·布迈丁机场的当前航空天气(METAR)的小部件吗?

</> 显示HTML代码

我们和第三方通过cookies跟踪您在我们网站上的上网行为。如果您继续,我们认为您同意我们的cookie政策。 了解更多